Time;durP1;ratioP1;P1;durP2;ratioP2;P2;SDS_P1;SDS_P2;PMS_P1;PMS_P2;Temp;Humidity;BMP_temperature;BMP_pressure;BME280_temperature;BME280_humidity;BME280_pressure;Samples;Min_cycle;Max_cycle;Signal;HPM_P1;HPM_P2
2021/05/14 00:00:03;;;;;;;3.83;2.00;;;;;;;2.09;97.94;92299.38;2100214;28;20025;-84
2021/05/14 00:01:04;;;;;;;3.42;1.92;;;;;;;2.14;98.05;92304.25;2087181;28;20398;-84
2021/05/14 00:02:05;;;;;;;5.75;1.92;;;;;;;2.13;98.17;92305.38;2091672;28;20115;-84
2021/05/14 00:03:06;;;;;;;6.45;1.80;;;;;;;2.15;98.86;92311.78;2109463;28;20024;-84
2021/05/14 00:04:07;;;;;;;2.03;1.60;;;;;;;2.09;98.44;92299.38;2108635;28;20034;-85
2021/05/14 00:05:08;;;;;;;4.28;1.75;;;;;;;2.07;98.75;92306.91;2091717;28;20044;-84
2021/05/14 00:06:09;;;;;;;3.15;2.00;;;;;;;2.05;98.42;92301.25;2083886;28;20033;-84
2021/05/14 00:07:10;;;;;;;3.38;2.05;;;;;;;2.02;97.84;92305.44;2093562;28;20155;-84
2021/05/14 00:08:10;;;;;;;3.65;1.95;;;;;;;2.03;97.78;92306.19;2100015;28;20571;-82
2021/05/14 00:09:12;;;;;;;2.83;1.80;;;;;;;1.97;97.83;92303.16;2099655;28;20058;-83
2021/05/14 00:10:13;;;;;;;2.88;1.80;;;;;;;2.01;97.48;92307.28;2092291;28;20651;-83
2021/05/14 00:11:13;;;;;;;5.25;1.80;;;;;;;2.03;98.76;92309.56;2092105;28;20029;-83
2021/05/14 00:12:14;;;;;;;4.43;2.00;;;;;;;1.95;100.00;92302.81;2100467;28;20059;-84
2021/05/14 00:13:15;;;;;;;3.22;1.88;;;;;;;2.10;100.00;92306.88;2109415;28;20035;-83
2021/05/14 00:14:15;;;;;;;5.28;1.90;;;;;;;2.04;100.00;92305.03;2109033;28;20026;-84
2021/05/14 00:15:17;;;;;;;3.38;1.70;;;;;;;2.05;100.00;92311.81;2109064;28;20630;-84
2021/05/14 00:16:17;;;;;;;2.15;1.63;;;;;;;1.93;99.66;92297.91;2090575;28;20106;-82
2021/05/14 00:17:18;;;;;;;2.83;1.80;;;;;;;1.96;99.88;92309.56;2091081;28;20025;-84
2021/05/14 00:18:19;;;;;;;1.92;1.65;;;;;;;1.93;99.91;92299.78;2092058;28;20021;-83
2021/05/14 00:19:19;;;;;;;2.55;1.42;;;;;;;2.05;99.35;92306.53;2100235;28;20108;-83
2021/05/14 00:20:20;;;;;;;4.30;1.65;;;;;;;1.93;99.47;92303.19;2108700;28;20026;-84
2021/05/14 00:21:21;;;;;;;2.63;1.90;;;;;;;1.89;99.17;92305.09;2109013;28;20020;-83
2021/05/14 00:22:21;;;;;;;3.10;1.38;;;;;;;1.89;98.90;92305.09;2108776;28;20448;-83
2021/05/14 00:23:23;;;;;;;2.42;1.60;;;;;;;1.88;98.42;92306.19;2109135;28;20051;-82
2021/05/14 00:24:24;;;;;;;2.67;1.63;;;;;;;1.80;98.46;92306.59;2100803;28;20051;-83
2021/05/14 00:25:25;;;;;;;2.03;1.42;;;;;;;1.74;99.21;92299.06;2092013;28;20043;-83
2021/05/14 00:26:26;;;;;;;3.30;1.52;;;;;;;1.74;98.75;92303.59;2090962;28;20025;-84
2021/05/14 00:27:27;;;;;;;2.35;1.63;;;;;;;1.69;98.35;92303.97;2092017;28;20115;-83
2021/05/14 00:28:28;;;;;;;2.47;1.60;;;;;;;1.68;98.26;92303.22;2108262;28;20389;-83
2021/05/14 00:29:28;;;;;;;3.92;1.35;;;;;;;1.70;97.65;92300.97;2100938;28;20531;-83
2021/05/14 00:30:29;;;;;;;2.92;1.50;;;;;;;1.72;97.46;92303.97;2108887;28;20077;-83
2021/05/14 00:31:30;;;;;;;3.13;1.50;;;;;;;1.68;98.04;92303.22;2095606;28;20535;-83
2021/05/14 00:32:30;;;;;;;3.38;1.67;;;;;;;1.69;97.94;92307.38;2104304;28;20043;-84
2021/05/14 00:33:31;;;;;;;4.88;1.95;;;;;;;1.71;98.71;92299.84;2100728;28;20039;-83
2021/05/14 00:34:32;;;;;;;1.92;1.55;;;;;;;1.61;98.89;92310.38;2091922;28;20025;-83
2021/05/14 00:35:33;;;;;;;1.80;1.60;;;;;;;1.70;98.84;92300.22;2109825;28;20039;-82
2021/05/14 00:36:33;;;;;;;2.13;1.40;;;;;;;1.63;98.00;92295.72;2109771;28;20149;-83
2021/05/14 00:37:34;;;;;;;2.85;1.50;;;;;;;1.60;97.60;92293.84;2108743;28;20062;-83
2021/05/14 00:38:36;;;;;;;4.75;1.70;;;;;;;1.58;97.46;92295.34;2098075;28;20028;-82
2021/05/14 00:39:36;;;;;;;1.65;1.55;;;;;;;1.50;97.03;92303.25;2092191;28;20088;-82
2021/05/14 00:40:37;;;;;;;1.70;1.40;;;;;;;1.62;97.42;92298.72;2092286;28;20089;-82
2021/05/14 00:41:38;;;;;;;4.50;1.63;;;;;;;1.65;97.46;92292.69;2087076;28;20021;-83
2021/05/14 00:42:38;;;;;;;2.15;1.50;;;;;;;1.63;96.60;92293.09;2104339;28;20028;-83
2021/05/14 00:43:39;;;;;;;3.47;1.50;;;;;;;1.61;97.18;92302.50;2099642;28;20025;-83
2021/05/14 00:44:48;;;;;;;3.03;1.60;;;;;;;1.56;97.05;92300.25;2091965;28;20390;-82
2021/05/14 00:45:49;;;;;;;2.35;1.73;;;;;;;1.53;97.07;92299.09;2093028;28;20033;-83
2021/05/14 00:46:50;;;;;;;2.42;1.40;;;;;;;1.49;96.77;92293.09;2100555;28;20024;-83
2021/05/14 00:47:51;;;;;;;2.67;1.50;;;;;;;1.46;96.34;92302.50;2109270;28;20586;-84
2021/05/14 00:48:52;;;;;;;3.38;1.67;;;;;;;1.47;95.85;92301.38;2100234;28;20031;-83
2021/05/14 00:49:52;;;;;;;2.22;1.35;;;;;;;1.54;95.80;92308.53;2099828;28;20024;-83
2021/05/14 00:50:53;;;;;;;2.85;1.40;;;;;;;1.54;95.92;92305.91;2108111;28;20034;-84
2021/05/14 00:51:56;;;;;;;2.47;1.52;;;;;;;1.47;95.32;92301.38;2109391;28;20312;-82
2021/05/14 00:52:56;;;;;;;2.13;1.65;;;;;;;1.46;95.72;92305.16;2099980;28;20024;-83
2021/05/14 00:53:57;;;;;;;2.53;1.58;;;;;;;1.46;95.28;92307.78;2099371;28;20030;-83
2021/05/14 00:54:58;;;;;;;3.05;1.92;;;;;;;1.48;95.67;92302.88;2100726;28;20024;-83
2021/05/14 00:55:58;;;;;;;2.15;1.40;;;;;;;1.40;95.24;92306.63;2100991;28;20043;-83
2021/05/14 00:56:59;;;;;;;2.38;1.40;;;;;;;1.34;95.42;92307.41;2092711;28;20051;-83
2021/05/14 00:58:00;;;;;;;1.98;1.70;;;;;;;1.27;96.01;92308.16;2092238;28;20021;-84
2021/05/14 00:59:01;;;;;;;1.60;1.45;;;;;;;1.29;96.20;92311.19;2107625;28;20020;-83
2021/05/14 01:00:02;;;;;;;2.67;1.55;;;;;;;1.30;96.19;92311.91;2114947;27;20474;-84
2021/05/14 01:01:03;;;;;;;2.03;1.40;;;;;;;1.27;96.23;92302.88;2100187;28;20027;-82
2021/05/14 01:02:05;;;;;;;2.42;1.50;;;;;;;1.26;96.22;92304.78;2095497;28;20017;-83
2021/05/14 01:03:06;;;;;;;2.45;1.33;;;;;;;1.22;95.75;92300.63;2107915;28;20078;-82
2021/05/14 01:04:06;;;;;;;2.20;1.58;;;;;;;1.18;95.52;92308.53;2107935;28;20477;-83
2021/05/14 01:05:08;;;;;;;2.75;1.50;;;;;;;1.27;95.39;92313.41;2108768;28;20053;-83
2021/05/14 01:06:09;;;;;;;2.08;1.50;;;;;;;1.25;95.81;92305.91;2100992;28;20066;-83
2021/05/14 01:07:11;;;;;;;2.65;1.40;;;;;;;1.26;96.17;92304.78;2100470;28;20028;-83
2021/05/14 01:08:12;;;;;;;4.10;1.63;;;;;;;1.27;96.75;92302.88;2092333;28;20059;-82
2021/05/14 01:09:14;;;;;;;4.63;1.65;;;;;;;1.19;96.88;92310.06;2099894;28;20384;-82
2021/05/14 01:10:17;;;;;;;3.33;1.58;;;;;;;1.15;97.37;92305.91;2109983;28;20566;-82
2021/05/14 01:11:18;;;;;;;1.92;1.50;;;;;;;1.19;97.59;92304.78;2107183;28;20520;-82
2021/05/14 01:12:19;;;;;;;2.35;1.40;;;;;;;1.16;97.27;92305.53;2100093;28;20074;-83
2021/05/14 01:13:24;;;;;;;3.88;1.80;;;;;;;1.15;96.81;92301.41;2100375;28;20429;-84
2021/05/14 01:14:25;;;;;;;3.85;1.77;;;;;;;1.07;97.21;92294.63;2100603;28;20067;-82
2021/05/14 01:15:26;;;;;;;5.35;1.60;;;;;;;1.09;97.33;92302.13;2100453;28;20036;-83
2021/05/14 01:16:27;;;;;;;3.28;1.88;;;;;;;1.11;97.68;92305.91;2099330;28;20051;-83
2021/05/14 01:17:30;;;;;;;1.80;1.38;;;;;;;1.12;97.17;92304.78;2108567;28;20027;-83
2021/05/14 01:18:31;;;;;;;2.67;1.30;;;;;;;1.04;97.38;92305.91;2092197;28;20185;-83
2021/05/14 01:19:32;;;;;;;1.65;1.52;;;;;;;1.02;96.65;92304.78;2093410;28;20033;-83
2021/05/14 01:20:32;;;;;;;2.47;1.50;;;;;;;0.96;96.61;92305.13;2091778;28;20025;-83
2021/05/14 01:21:33;;;;;;;2.50;1.58;;;;;;;0.92;97.04;92306.25;2083523;28;20029;-82
2021/05/14 01:22:35;;;;;;;5.00;1.60;;;;;;;0.91;97.38;92302.13;2087259;28;20033;-83
2021/05/14 01:23:35;;;;;;;2.72;1.90;;;;;;;0.97;97.25;92300.66;2099740;28;20028;-83
2021/05/14 01:24:36;;;;;;;2.05;1.75;;;;;;;1.00;97.57;92297.25;2108221;28;20035;-85
2021/05/14 01:25:37;;;;;;;1.65;1.50;;;;;;;1.01;97.45;92293.50;2107320;28;20028;-83
2021/05/14 01:26:37;;;;;;;2.58;1.40;;;;;;;1.00;97.64;92302.50;2107569;28;20032;-84
2021/05/14 01:27:38;;;;;;;4.00;1.55;;;;;;;0.95;97.92;92298.38;2100641;28;20052;-83
2021/05/14 01:28:40;;;;;;;3.22;1.60;;;;;;;0.92;97.46;92299.13;2108202;28;20055;-84
2021/05/14 01:29:43;;;;;;;2.35;1.70;;;;;;;0.90;96.85;92295.38;2108767;28;20042;-84
2021/05/14 01:30:44;;;;;;;5.22;1.88;;;;;;;0.91;97.58;92297.63;2109063;27;20078;-82
2021/05/14 01:31:44;;;;;;;3.63;1.20;;;;;;;0.92;97.06;92295.72;2100129;28;20115;-83
2021/05/14 01:32:45;;;;;;;1.92;1.50;;;;;;;0.90;96.74;92292.75;2100159;28;20039;-84
2021/05/14 01:33:46;;;;;;;4.75;1.50;;;;;;;0.86;97.47;92290.09;2099608;28;20028;-83
2021/05/14 01:34:46;;;;;;;4.00;1.23;;;;;;;0.90;97.56;92300.63;2099764;28;20048;-84
2021/05/14 01:35:47;;;;;;;3.30;1.33;;;;;;;0.85;98.03;92293.88;2099840;28;20024;-83
2021/05/14 01:36:47;;;;;;;1.98;1.40;;;;;;;0.86;97.78;92298.00;2099694;28;20027;-84
2021/05/14 01:37:48;;;;;;;1.83;1.20;;;;;;;0.86;96.68;92290.09;2090942;28;20020;-83
2021/05/14 01:38:49;;;;;;;2.05;1.10;;;;;;;0.79;96.84;92299.84;2092152;28;20020;-82
2021/05/14 01:39:49;;;;;;;2.47;1.35;;;;;;;0.75;96.86;92291.97;2099907;28;20560;-82
2021/05/14 01:40:50;;;;;;;1.83;1.30;;;;;;;0.78;96.60;92293.09;2099548;28;20036;-83
2021/05/14 01:41:52;;;;;;;2.85;1.38;;;;;;;0.77;96.29;92294.97;2101473;28;20035;-84
2021/05/14 01:42:53;;;;;;;2.08;1.35;;;;;;;0.73;96.45;92287.06;2108057;28;20026;-84
2021/05/14 01:43:53;;;;;;;1.15;1.00;;;;;;;0.70;97.08;92297.59;2108916;28;20507;-84
2021/05/14 01:44:54;;;;;;;5.22;1.20;;;;;;;0.78;96.65;92293.09;2110326;28;20369;-83
2021/05/14 01:45:54;;;;;;;2.60;1.08;;;;;;;0.79;96.25;92286.69;2098467;28;20056;-84
2021/05/14 01:46:55;;;;;;;6.05;1.20;;;;;;;0.75;95.97;92290.09;2100225;28;20050;-84
2021/05/14 01:47:56;;;;;;;1.35;1.02;;;;;;;0.73;96.88;92288.94;2100833;28;20081;-84
2021/05/14 01:48:57;;;;;;;1.70;1.10;;;;;;;0.74;96.55;92285.19;2099975;28;20359;-82
2021/05/14 01:49:57;;;;;;;2.85;1.00;;;;;;;0.71;96.92;92289.34;2107663;28;20438;-83
2021/05/14 01:51:12;;;;;;;2.15;1.15;;;;;;;0.71;97.41;92289.34;2091426;28;20029;-82
2021/05/14 01:52:12;;;;;;;4.03;1.17;;;;;;;0.70;97.74;92289.69;2099877;28;20028;-84
2021/05/14 01:53:13;;;;;;;4.22;1.30;;;;;;;0.73;97.51;92289.69;2095450;28;20618;-82
2021/05/14 01:54:15;;;;;;;1.95;1.15;;;;;;;0.72;97.66;92296.09;2082977;28;20024;-83
2021/05/14 01:55:16;;;;;;;4.00;1.40;;;;;;;0.65;97.66;92288.19;2091919;28;20025;-84
2021/05/14 01:56:17;;;;;;;4.03;1.15;;;;;;;0.58;97.39;92285.56;2107671;28;20019;-83
2021/05/14 01:57:18;;;;;;;3.40;1.60;;;;;;;0.70;98.71;92294.94;2108850;28;20531;-81
2021/05/14 01:58:18;;;;;;;3.60;1.60;;;;;;;0.64;99.53;92293.81;2091528;28;20364;-82
2021/05/14 01:59:19;;;;;;;2.80;1.42;;;;;;;0.69;99.32;92291.56;2091395;28;20024;-84
2021/05/14 02:00:21;;;;;;;2.25;1.35;;;;;;;0.82;99.88;92288.59;2100061;28;20091;-83
2021/05/14 02:01:22;;;;;;;2.75;1.63;;;;;;;0.74;100.00;92290.44;2091932;28;20120;-82
2021/05/14 02:02:22;;;;;;;4.45;1.80;;;;;;;0.60;100.00;92295.69;2099325;28;20032;-83
2021/05/14 02:05:10;;;;;;;;;;;;;;;0.57;100.00;92291.94;2138781;27;20125;-84
2021/05/14 02:06:10;;;;;;;3.10;1.63;;;;;;;0.62;100.00;92299.47;2127963;27;19911;-82
2021/05/14 02:07:11;;;;;;;2.65;1.52;;;;;;;0.53;100.00;92291.19;2127636;27;20018;-84
2021/05/14 02:08:12;;;;;;;2.45;1.50;;;;;;;0.57;100.00;92294.56;2126811;27;20464;-84
2021/05/14 02:09:13;;;;;;;1.50;1.40;;;;;;;0.60;100.00;92290.44;2119111;28;20027;-84
2021/05/14 02:10:14;;;;;;;1.92;1.70;;;;;;;0.57;100.00;92293.78;2119725;27;20065;-82
2021/05/14 02:11:14;;;;;;;3.33;1.67;;;;;;;0.60;100.00;92293.81;2119105;27;20027;-83
2021/05/14 02:12:15;;;;;;;2.03;1.75;;;;;;;0.61;100.00;92300.56;2119266;28;20028;-84
2021/05/14 02:13:15;;;;;;;2.30;1.73;;;;;;;0.58;100.00;92290.06;2122277;27;20061;-83
2021/05/14 02:14:16;;;;;;;3.08;1.70;;;;;;;0.76;100.00;92290.84;2118995;28;20043;-81
2021/05/14 02:15:17;;;;;;;5.45;2.08;;;;;;;0.68;100.00;92297.97;2118476;28;20523;-81
2021/05/14 02:16:19;;;;;;;2.55;2.00;;;;;;;0.77;100.00;92292.34;2110504;28;20034;-81
2021/05/14 02:17:20;;;;;;;4.10;2.00;;;;;;;0.72;100.00;92298.72;2114169;27;20488;-81
2021/05/14 02:18:21;;;;;;;3.42;1.95;;;;;;;0.66;100.00;92292.34;2115260;28;20028;-80
2021/05/14 02:19:22;;;;;;;2.00;1.80;;;;;;;0.73;100.00;92291.59;2107335;28;20032;-83
2021/05/14 02:20:22;;;;;;;2.15;1.90;;;;;;;0.80;100.00;92294.22;2102041;28;20417;-84
2021/05/14 02:21:23;;;;;;;7.15;1.95;;;;;;;0.77;100.00;92288.97;2119262;27;20209;-84
2021/05/14 02:22:24;;;;;;;3.92;1.70;;;;;;;0.82;100.00;92289.34;2119159;28;20042;-83
2021/05/14 02:23:24;;;;;;;2.92;1.80;;;;;;;0.84;100.00;92284.47;2127702;27;20043;-81
2021/05/14 02:24:25;;;;;;;2.10;1.65;;;;;;;0.93;100.00;92289.38;2127517;27;20462;-81
2021/05/14 02:25:26;;;;;;;2.65;1.90;;;;;;;0.99;100.00;92285.22;2127316;27;20039;-83
2021/05/14 02:26:27;;;;;;;1.92;1.83;;;;;;;0.94;100.00;92282.97;2119083;28;20126;-83
2021/05/14 02:27:27;;;;;;;2.10;1.70;;;;;;;0.77;100.00;92284.44;2118393;28;20057;-83
2021/05/14 02:28:28;;;;;;;2.97;1.70;;;;;;;0.79;100.00;92292.75;2119051;28;20035;-84
2021/05/14 02:29:29;;;;;;;3.05;1.73;;;;;;;0.81;100.00;92285.22;2110891;28;20110;-83
2021/05/14 02:30:29;;;;;;;3.40;1.88;;;;;;;0.86;100.00;92284.09;2110501;28;20100;-82
2021/05/14 02:31:31;;;;;;;2.03;1.83;;;;;;;0.82;100.00;92281.44;2117133;27;20032;-82
2021/05/14 02:32:32;;;;;;;2.72;1.63;;;;;;;0.80;100.00;92281.09;2119088;27;20031;-83
2021/05/14 02:33:33;;;;;;;2.95;1.80;;;;;;;0.79;100.00;92287.47;2127950;27;20042;-81
2021/05/14 02:34:33;;;;;;;1.92;1.50;;;;;;;0.78;100.00;92282.56;2136774;27;20026;-81
2021/05/14 02:35:35;;;;;;;1.70;1.58;;;;;;;0.81;100.00;92281.84;2127517;27;20046;-80
2021/05/14 02:36:36;;;;;;;1.60;1.50;;;;;;;0.77;100.00;92281.06;2118948;27;20492;-81
2021/05/14 02:37:36;;;;;;;1.95;1.73;;;;;;;0.78;100.00;92279.94;2118547;27;20023;-84
2021/05/14 02:38:37;;;;;;;2.20;1.60;;;;;;;0.71;100.00;92280.69;2109757;28;20528;-84
2021/05/14 02:39:38;;;;;;;3.30;1.73;;;;;;;0.80;99.88;92281.09;2118943;27;20419;-85
2021/05/14 02:40:38;;;;;;;2.28;1.40;;;;;;;0.75;99.50;92279.56;2119088;28;20388;-85
2021/05/14 02:41:39;;;;;;;1.83;1.40;;;;;;;0.72;100.00;92282.19;2110330;28;20556;-82
2021/05/14 02:42:40;;;;;;;1.77;1.67;;;;;;;0.72;100.00;92284.81;2110295;28;20051;-80
2021/05/14 02:43:42;;;;;;;2.42;1.80;;;;;;;0.66;100.00;92279.19;2101838;28;20024;-84
2021/05/14 02:44:43;;;;;;;1.83;1.55;;;;;;;0.69;100.00;92281.06;2102160;28;20170;-84
2021/05/14 02:45:44;;;;;;;5.65;1.80;;;;;;;0.64;100.00;92280.69;2110779;27;20377;-85
2021/05/14 02:46:45;;;;;;;2.30;1.42;;;;;;;0.74;100.00;92275.41;2109954;28;20034;-82
2021/05/14 02:47:45;;;;;;;3.40;1.70;;;;;;;0.73;100.00;92283.69;2102059;28;20024;-84
2021/05/14 02:48:46;;;;;;;2.75;1.70;;;;;;;0.76;100.00;92280.31;2101673;28;20032;-84
2021/05/14 02:49:47;;;;;;;3.40;1.70;;;;;;;0.75;100.00;92274.31;2110242;28;20027;-85
2021/05/14 02:50:47;;;;;;;2.75;1.60;;;;;;;0.79;100.00;92276.97;2126790;27;20031;-84
2021/05/14 02:51:48;;;;;;;2.65;1.80;;;;;;;0.80;100.00;92275.81;2118360;28;20050;-83
2021/05/14 02:52:49;;;;;;;4.15;1.48;;;;;;;0.80;100.00;92280.34;2110404;28;20031;-84
2021/05/14 02:53:49;;;;;;;3.03;1.50;;;;;;;0.83;100.00;92279.56;2110338;28;20515;-84
2021/05/14 02:54:50;;;;;;;4.20;1.65;;;;;;;0.84;100.00;92281.84;2101622;28;20021;-83
2021/05/14 02:55:50;;;;;;;1.58;1.48;;;;;;;0.79;100.00;92276.97;2110405;28;20019;-85
2021/05/14 02:56:52;;;;;;;3.33;1.58;;;;;;;0.80;100.00;92270.56;2119121;28;20096;-81
2021/05/14 02:57:53;;;;;;;3.30;1.88;;;;;;;0.85;100.00;92270.19;2112491;28;20023;-80
2021/05/14 02:58:54;;;;;;;3.13;1.70;;;;;;;0.82;100.00;92272.81;2108084;28;20382;-85
2021/05/14 02:59:54;;;;;;;3.70;1.60;;;;;;;0.90;100.00;92272.44;2107364;28;20027;-85
2021/05/14 03:00:56;;;;;;;2.00;1.80;;;;;;;0.91;100.00;92270.56;2114775;27;20030;-83
2021/05/14 03:01:58;;;;;;;2.20;1.70;;;;;;;0.93;100.00;92268.31;2116679;27;20035;-84
2021/05/14 03:02:58;;;;;;;5.43;1.63;;;;;;;0.93;100.00;92269.06;2108013;28;20027;-83
2021/05/14 03:03:59;;;;;;;2.95;1.77;;;;;;;0.97;100.00;92258.56;2115707;28;20421;-80
2021/05/14 03:05:00;;;;;;;4.18;1.55;;;;;;;0.97;100.00;92266.44;2106904;28;20039;-83
2021/05/14 03:06:01;;;;;;;1.60;1.50;;;;;;;0.99;100.00;92261.53;2107327;28;20047;-82
2021/05/14 03:07:02;;;;;;;2.42;1.40;;;;;;;1.00;100.00;92263.03;2098491;28;20039;-83
2021/05/14 03:08:03;;;;;;;1.90;1.65;;;;;;;0.93;100.00;92257.78;2101565;28;20032;-85
2021/05/14 03:09:05;;;;;;;2.95;1.60;;;;;;;0.99;100.00;92269.44;2101849;28;20297;-82
2021/05/14 03:10:06;;;;;;;2.47;1.58;;;;;;;1.05;100.00;92265.28;2102218;28;20115;-84
2021/05/14 03:11:07;;;;;;;1.77;1.52;;;;;;;1.01;100.00;92272.47;2098282;28;20276;-85
2021/05/14 03:12:08;;;;;;;3.17;1.73;;;;;;;0.95;100.00;92266.06;2098298;28;20032;-85
2021/05/14 03:13:09;;;;;;;2.45;1.50;;;;;;;0.96;100.00;92267.53;2106903;28;20127;-84
2021/05/14 03:14:10;;;;;;;4.47;1.58;;;;;;;0.90;100.00;92274.31;2115405;28;20024;-85
2021/05/14 03:15:11;;;;;;;2.10;1.73;;;;;;;0.88;100.00;92276.56;2107413;28;20024;-83
2021/05/14 03:16:12;;;;;;;4.00;1.40;;;;;;;0.91;100.00;92255.53;2095073;28;20033;-83
2021/05/14 03:17:12;;;;;;;2.13;1.60;;;;;;;0.92;100.00;92266.78;2103324;28;20059;-83
2021/05/14 03:18:13;;;;;;;3.40;1.50;;;;;;;0.96;100.00;92265.66;2109622;28;20036;-84
2021/05/14 03:19:14;;;;;;;5.18;1.60;;;;;;;0.93;100.00;92260.44;2092860;28;20020;-82
2021/05/14 03:20:14;;;;;;;3.03;1.25;;;;;;;0.99;100.00;92267.56;2096276;28;20029;-83
2021/05/14 03:21:15;;;;;;;4.53;1.60;;;;;;;0.89;100.00;92262.31;2110892;28;20031;-84
2021/05/14 03:22:16;;;;;;;3.00;1.58;;;;;;;0.88;100.00;92261.56;2102333;28;20134;-82
2021/05/14 03:23:17;;;;;;;1.58;1.48;;;;;;;0.93;100.00;92257.78;2101256;28;20097;-83
2021/05/14 03:24:19;;;;;;;1.92;1.50;;;;;;;0.96;100.00;92259.66;2117303;27;20150;-83
2021/05/14 03:25:20;;;;;;;2.95;1.50;;;;;;;0.91;100.00;92260.03;2117063;27;20032;-84
2021/05/14 03:26:20;;;;;;;1.85;1.60;;;;;;;0.84;100.00;92255.53;2100661;28;20543;-82
2021/05/14 03:27:21;;;;;;;3.55;1.38;;;;;;;0.79;100.00;92252.50;2094470;28;20028;-83
2021/05/14 03:28:21;;;;;;;2.00;1.60;;;;;;;0.90;100.00;92258.53;2094756;28;20075;-84
2021/05/14 03:29:22;;;;;;;1.80;1.30;;;;;;;0.83;100.00;92256.63;2109542;28;20059;-83
2021/05/14 03:30:23;;;;;;;4.05;1.48;;;;;;;0.84;100.00;92252.16;2100646;28;20170;-84
2021/05/14 03:31:23;;;;;;;3.08;1.35;;;;;;;0.75;100.00;92257.78;2101045;28;20214;-82
2021/05/14 03:32:24;;;;;;;2.35;1.60;;;;;;;0.72;100.00;92261.91;2092358;28;20478;-83
2021/05/14 03:33:25;;;;;;;1.95;1.38;;;;;;;0.71;100.00;92257.78;2101780;28;20118;-83
2021/05/14 03:34:26;;;;;;;2.53;1.42;;;;;;;0.74;100.00;92261.53;2119036;27;20122;-83
2021/05/14 03:35:27;;;;;;;1.67;1.50;;;;;;;0.69;100.00;92264.53;2100169;28;20033;-83
2021/05/14 03:36:27;;;;;;;2.85;1.48;;;;;;;0.68;100.00;92258.53;2092302;28;20435;-84
2021/05/14 03:37:28;;;;;;;2.35;1.27;;;;;;;0.68;100.00;92257.78;2096024;28;20164;-83
2021/05/14 03:38:33;;;;;;;3.58;1.60;;;;;;;0.74;100.00;92261.53;2103253;28;20067;-84
2021/05/14 03:39:40;;;;;;;2.45;1.52;;;;;;;0.72;100.00;92254.00;2103444;28;20032;-83
2021/05/14 03:40:41;;;;;;;2.38;1.65;;;;;;;0.68;100.00;92258.53;2110947;28;20039;-82
2021/05/14 03:41:50;;;;;;;2.50;1.50;;;;;;;0.83;100.00;92251.38;2109373;28;20119;-83
2021/05/14 03:42:51;;;;;;;3.97;1.40;;;;;;;0.77;100.00;92254.78;2109651;28;20027;-83
2021/05/14 03:43:52;;;;;;;2.20;1.80;;;;;;;0.93;100.00;92257.78;2100973;28;20032;-83
2021/05/14 03:44:52;;;;;;;1.83;1.50;;;;;;;0.80;100.00;92249.53;2092622;28;20029;-84
2021/05/14 03:45:53;;;;;;;1.70;1.60;;;;;;;0.77;100.00;92258.16;2108385;28;20522;-84
2021/05/14 03:46:54;;;;;;;1.92;1.50;;;;;;;0.73;100.00;92249.50;2104310;28;20028;-83
2021/05/14 03:47:56;;;;;;;1.83;1.48;;;;;;;0.58;100.00;92248.75;2087758;28;20087;-82
2021/05/14 03:48:57;;;;;;;1.73;1.30;;;;;;;0.59;100.00;92244.25;2103322;28;20435;-82
2021/05/14 03:49:59;;;;;;;1.75;1.45;;;;;;;0.50;100.00;92252.50;2103018;28;20032;-84
2021/05/14 03:51:00;;;;;;;3.42;1.20;;;;;;;0.50;100.00;92253.22;2100999;28;20523;-83
2021/05/14 03:52:02;;;;;;;3.83;1.50;;;;;;;0.54;99.94;92247.25;2101664;28;20028;-82
2021/05/14 03:53:03;;;;;;;3.30;1.50;;;;;;;0.47;99.04;92255.84;2092750;28;20450;-84
2021/05/14 03:54:04;;;;;;;2.20;1.35;;;;;;;0.37;99.19;92251.34;2104107;28;20032;-82
2021/05/14 03:55:06;;;;;;;1.52;1.30;;;;;;;0.45;98.74;92250.22;2102412;28;20039;-83
2021/05/14 03:56:06;;;;;;;2.90;1.48;;;;;;;0.44;98.22;92246.84;2092271;28;20029;-84
2021/05/14 03:57:08;;;;;;;4.82;1.48;;;;;;;0.45;98.33;92250.97;2084075;28;20044;-85
2021/05/14 03:58:09;;;;;;;3.33;1.40;;;;;;;0.34;98.58;92249.44;2094001;28;20029;-84
2021/05/14 03:59:09;;;;;;;3.30;1.45;;;;;;;0.29;99.15;92249.81;2108632;28;20503;-83
2021/05/14 04:00:11;;;;;;;1.80;1.27;;;;;;;0.25;99.70;92242.66;2100669;28;20056;-83
2021/05/14 04:01:12;;;;;;;1.70;1.60;;;;;;;0.26;99.90;92243.41;2092690;28;20024;-84
2021/05/14 04:02:13;;;;;;;2.42;1.20;;;;;;;0.19;99.18;92246.78;2091487;28;20398;-83
2021/05/14 04:03:15;;;;;;;3.20;1.55;;;;;;;0.26;99.26;92253.91;2085547;28;20029;-84
2021/05/14 04:04:17;;;;;;;2.83;1.33;;;;;;;0.28;99.55;92251.69;2100811;28;20040;-82
2021/05/14 04:05:18;;;;;;;2.97;1.52;;;;;;;0.31;99.60;92248.31;2116884;27;20586;-83
2021/05/14 04:06:19;;;;;;;2.40;1.40;;;;;;;0.33;99.88;92247.94;2107963;28;20028;-82
2021/05/14 04:07:21;;;;;;;1.55;1.45;;;;;;;0.35;99.53;92250.94;2109197;28;20031;-84
2021/05/14 04:08:22;;;;;;;2.72;1.70;;;;;;;0.29;99.98;92249.81;2108570;28;20085;-84
2021/05/14 04:09:31;;;;;;;1.88;1.52;;;;;;;0.33;100.00;92247.94;2091927;28;20098;-83
2021/05/14 04:12:04;;;;;;;2.58;1.58;;;;;;;0.38;100.00;92250.94;2111872;28;20039;-84
2021/05/14 04:15:28;;;;;;;3.80;2.30;;;;;;;0.34;100.00;92255.44;2116936;27;20126;-84
2021/05/14 04:16:29;;;;;;;5.95;3.45;;;;;;;0.35;100.00;92245.69;2109707;28;20548;-84
2021/05/14 04:17:30;;;;;;;8.07;4.13;;;;;;;0.38;100.00;92244.94;2100147;28;20032;-82
2021/05/14 04:18:31;;;;;;;6.07;3.38;;;;;;;0.41;100.00;92250.22;2100627;28;20032;-84
2021/05/14 04:19:32;;;;;;;4.88;3.20;;;;;;;0.39;100.00;92243.81;2095635;28;20024;-84
2021/05/14 04:20:32;;;;;;;3.13;2.60;;;;;;;0.40;100.00;92248.72;2088027;28;20059;-82
2021/05/14 04:21:33;;;;;;;5.25;2.60;;;;;;;0.45;100.00;92247.59;2095404;28;20332;-84
2021/05/14 04:22:34;;;;;;;3.08;2.30;;;;;;;0.32;100.00;92244.56;2094460;28;20029;-83
2021/05/14 04:23:34;;;;;;;3.92;2.00;;;;;;;0.38;100.00;92250.19;2101157;28;20442;-85
2021/05/14 04:24:35;;;;;;;3.97;2.20;;;;;;;0.34;100.00;92258.06;2110152;28;20051;-83
2021/05/14 04:25:38;;;;;;;2.05;1.83;;;;;;;0.40;100.00;92248.72;2109506;28;20524;-83
2021/05/14 04:26:39;;;;;;;5.05;3.65;;;;;;;0.46;100.00;92249.09;2102841;28;20114;-83
2021/05/14 04:27:39;;;;;;;4.70;3.65;;;;;;;0.48;100.00;92252.88;2108822;28;20036;-82
2021/05/14 04:28:40;;;;;;;5.22;3.50;;;;;;;0.39;100.00;92262.22;2102210;28;20028;-84
2021/05/14 04:29:42;;;;;;;7.20;2.80;;;;;;;0.47;100.00;92251.34;2095341;28;20025;-84
2021/05/14 04:30:42;;;;;;;2.95;2.20;;;;;;;0.45;100.00;92256.22;2108841;28;20739;-83
2021/05/14 04:31:44;;;;;;;2.50;1.70;;;;;;;0.54;100.00;92253.25;2117206;27;20110;-84
2021/05/14 04:32:44;;;;;;;2.80;1.85;;;;;;;0.50;100.00;92253.22;2100887;28;20063;-83
2021/05/14 04:33:45;;;;;;;3.38;1.83;;;;;;;0.62;100.00;92254.75;2093094;28;20024;-85
2021/05/14 04:34:47;;;;;;;4.30;1.95;;;;;;;0.67;100.00;92259.66;2100108;28;20039;-83
2021/05/14 04:35:49;;;;;;;2.95;2.00;;;;;;;0.65;100.00;92251.38;2100921;28;20085;-84
2021/05/14 04:36:49;;;;;;;4.20;2.40;;;;;;;0.66;100.00;92252.91;2100219;28;20025;-84
2021/05/14 04:37:50;;;;;;;2.30;1.90;;;;;;;0.66;100.00;92254.75;2101392;28;20748;-83
2021/05/14 04:38:51;;;;;;;2.65;1.45;;;;;;;0.79;100.00;92255.91;2092941;28;20032;-83
2021/05/14 04:39:51;;;;;;;6.03;1.95;;;;;;;0.81;100.00;92251.00;2100204;28;20107;-85
2021/05/14 04:40:52;;;;;;;2.53;1.83;;;;;;;0.81;100.00;92251.00;2108813;28;20426;-83
2021/05/14 04:41:53;;;;;;;2.03;1.75;;;;;;;0.78;100.00;92248.38;2091206;28;20029;-83
2021/05/14 04:43:00;;;;;;;2.42;1.60;;;;;;;0.80;100.00;92244.25;2095168;28;20033;-83
2021/05/14 04:44:01;;;;;;;2.40;1.70;;;;;;;0.81;100.00;92251.00;2101486;28;20052;-84
2021/05/14 04:45:02;;;;;;;2.25;1.52;;;;;;;0.80;100.00;92243.50;2091766;28;20020;-83
2021/05/14 04:46:03;;;;;;;1.98;1.42;;;;;;;0.75;100.00;92250.66;2094272;28;20525;-83
2021/05/14 04:47:03;;;;;;;3.10;2.53;;;;;;;0.80;100.00;92249.53;2108780;28;20084;-83
2021/05/14 04:48:05;;;;;;;2.60;2.40;;;;;;;0.80;100.00;92254.03;2116602;27;20376;-84
2021/05/14 04:49:06;;;;;;;3.30;2.20;;;;;;;0.84;100.00;92252.16;2109174;28;20495;-83
2021/05/14 04:50:07;;;;;;;3.58;2.60;;;;;;;0.80;100.00;92254.78;2108980;28;20027;-82
2021/05/14 04:51:08;;;;;;;2.45;2.22;;;;;;;0.84;100.00;92250.28;2102381;28;20059;-83
2021/05/14 04:52:18;;;;;;;3.90;2.30;;;;;;;0.89;100.00;92252.53;2086585;28;20028;-85
2021/05/14 04:53:21;;;;;;;2.38;1.63;;;;;;;0.90;100.00;92248.75;2088964;28;20095;-84
2021/05/14 04:54:22;;;;;;;3.45;1.98;;;;;;;0.88;100.00;92252.88;2087438;28;20130;-84